Time;durP1;ratioP1;P1;durP2;ratioP2;P2;SDS_P1;SDS_P2;PMS_P1;PMS_P2;Temp;Humidity;BMP_temperature;BMP_pressure;BME280_temperature;BME280_humidity;BME280_pressure;Samples;Min_cycle;Max_cycle;Signal;HPM_P1;HPM_P2
2022/03/22 00:00:32;;;;;;;28.05;9.68;;;;;;;8.29;54.96;101432.19;5086213;28;20063;-41
2022/03/22 00:02:59;;;;;;;27.58;9.73;;;;;;;8.25;54.38;101430.34;5085076;28;20048;-40
2022/03/22 00:05:26;;;;;;;24.77;8.63;;;;;;;8.21;55.49;101425.09;5083175;28;20048;-43
2022/03/22 00:07:52;;;;;;;26.13;9.50;;;;;;;8.20;54.61;101431.09;5084494;28;20093;-41
2022/03/22 00:10:19;;;;;;;26.48;9.95;;;;;;;8.16;54.97;101426.69;5083904;28;20048;-41
2022/03/22 00:12:48;;;;;;;23.33;8.43;;;;;;;8.14;54.54;101432.63;5083467;28;20484;-41
2022/03/22 00:15:17;;;;;;;27.13;9.27;;;;;;;8.12;54.83;101435.16;5084893;28;20044;-42
2022/03/22 00:18:04;;;;;;;22.33;8.80;;;;;;;8.07;55.65;101435.00;5068765;28;20040;-40
2022/03/22 00:20:31;;;;;;;28.63;9.07;;;;;;;8.06;54.67;101435.84;5086945;28;20121;-42
2022/03/22 00:22:58;;;;;;;28.40;9.57;;;;;;;8.04;55.05;101431.47;5080963;28;20433;-41
2022/03/22 00:25:25;;;;;;;23.23;9.25;;;;;;;8.01;54.85;101436.53;5083026;28;20491;-41
2022/03/22 00:27:53;;;;;;;25.20;8.80;;;;;;;7.98;54.06;101443.34;5085819;28;20052;-41
2022/03/22 00:30:26;;;;;;;27.23;9.73;;;;;;;7.96;54.17;101439.84;5084309;28;20055;-42
2022/03/22 00:32:54;;;;;;;24.05;7.45;;;;;;;7.92;55.30;101438.00;5082981;28;20475;-42
2022/03/22 00:35:23;;;;;;;24.60;8.38;;;;;;;7.90;54.02;101443.97;5083286;28;20057;-42
2022/03/22 00:37:53;;;;;;;24.40;9.27;;;;;;;7.87;54.38;101439.56;5090609;28;20052;-41
2022/03/22 00:40:21;;;;;;;30.35;8.88;;;;;;;7.87;55.00;101434.41;5085558;28;20051;-40
2022/03/22 00:42:51;;;;;;;22.60;7.85;;;;;;;7.86;53.74;101437.81;5086842;28;20040;-42
2022/03/22 00:45:18;;;;;;;;;;;;;;;7.72;55.04;101440.84;5087830;28;20479;-40
2022/03/22 00:47:47;;;;;;;24.77;8.65;;;;;;;7.78;55.12;101434.13;5088798;28;19947;-41
2022/03/22 00:50:16;;;;;;;29.33;8.50;;;;;;;7.78;54.03;101428.97;5087365;28;20098;-39
2022/03/22 00:52:43;;;;;;;22.63;8.25;;;;;;;7.73;55.07;101433.97;5085907;28;20055;-41
2022/03/22 00:55:12;;;;;;;26.63;9.02;;;;;;;7.73;53.96;101441.72;5085920;28;20070;-40
2022/03/22 00:57:40;;;;;;;25.48;8.90;;;;;;;7.70;54.11;101441.63;5087624;28;20052;-41
2022/03/22 01:00:11;;;;;;;22.50;8.65;;;;;;;7.67;55.48;101437.22;5087592;28;20052;-41
2022/03/22 01:02:41;;;;;;;26.20;9.00;;;;;;;7.64;53.78;101437.16;5087503;28;20070;-41
2022/03/22 01:05:11;;;;;;;24.23;8.65;;;;;;;7.63;55.06;101429.38;5084763;28;20050;-39
2022/03/22 01:07:38;;;;;;;;;;;;;;;7.49;53.62;101434.09;5087976;28;20483;-40
2022/03/22 01:10:07;;;;;;;22.77;8.25;;;;;;;7.54;53.79;101438.53;5089170;28;20130;-40
2022/03/22 01:12:36;;;;;;;22.80;7.35;;;;;;;7.52;53.43;101441.91;5088008;28;20039;-41
2022/03/22 01:15:06;;;;;;;22.65;7.60;;;;;;;7.49;53.64;101441.81;5087374;28;20044;-41
2022/03/22 01:17:33;;;;;;;21.60;8.30;;;;;;;7.44;54.87;101437.38;5089026;28;20106;-41
2022/03/22 01:20:01;;;;;;;22.15;8.85;;;;;;;7.42;53.45;101431.31;5089738;28;20048;-42
2022/03/22 01:22:28;;;;;;;28.17;9.45;;;;;;;7.37;55.26;101422.56;5086241;28;20352;-40
2022/03/22 01:24:54;;;;;;;24.25;8.52;;;;;;;7.33;53.79;101425.84;5087517;28;20048;-41
2022/03/22 01:27:26;;;;;;;24.15;8.43;;;;;;;7.29;55.33;101423.97;5087662;28;20399;-40
2022/03/22 01:29:53;;;;;;;24.85;8.90;;;;;;;7.24;54.42;101425.53;5087456;28;20052;-40
2022/03/22 01:32:19;;;;;;;26.30;7.65;;;;;;;7.19;54.15;101423.69;5084286;28;20081;-41
2022/03/22 01:34:46;;;;;;;23.73;8.02;;;;;;;7.17;53.70;101425.31;5084675;28;20097;-40
2022/03/22 01:37:13;;;;;;;21.88;8.07;;;;;;;7.13;53.96;101420.88;5087422;28;20040;-41
2022/03/22 01:39:39;;;;;;;21.20;7.85;;;;;;;7.07;53.67;101424.13;5091364;28;20105;-42
2022/03/22 01:42:06;;;;;;;24.63;8.10;;;;;;;7.04;54.92;101420.59;5084079;28;20567;-40
2022/03/22 01:44:33;;;;;;;25.10;8.68;;;;;;;7.00;53.52;101424.78;5089065;28;20088;-40
2022/03/22 01:47:02;;;;;;;24.05;8.43;;;;;;;6.97;53.25;101416.06;5085425;28;20129;-40
2022/03/22 01:49:29;;;;;;;21.95;7.85;;;;;;;6.89;53.93;101415.81;5085583;28;20101;-40
2022/03/22 01:51:56;;;;;;;21.08;8.38;;;;;;;6.80;54.90;101414.63;5086382;28;20105;-41
2022/03/22 01:54:24;;;;;;;26.13;7.75;;;;;;;6.71;54.74;101414.31;5085470;28;20101;-40
2022/03/22 01:56:51;;;;;;;24.38;8.02;;;;;;;6.60;54.66;101415.63;5086261;28;20056;-39
2022/03/22 01:59:17;;;;;;;22.30;8.27;;;;;;;6.49;54.19;101415.25;5088548;28;20727;-39
2022/03/22 02:07:18;;;;;;;23.23;8.40;;;;;;;6.25;55.96;101403.25;5084288;28;20131;-40
2022/03/22 02:09:44;;;;;;;20.13;7.68;;;;;;;6.19;55.56;101410.72;5087008;28;20040;-40
2022/03/22 02:12:11;;;;;;;21.58;7.63;;;;;;;6.17;56.16;101409.00;5087213;28;20039;-40
2022/03/22 02:14:37;;;;;;;22.42;7.32;;;;;;;6.13;56.03;101412.28;5107898;28;20043;-40
2022/03/22 02:17:07;;;;;;;24.27;8.63;;;;;;;6.11;55.86;101406.16;5105417;28;20096;-39
2022/03/22 02:19:38;;;;;;;26.65;8.23;;;;;;;6.08;55.48;101400.91;5090212;28;20056;-40
2022/03/22 02:22:09;;;;;;;23.17;8.15;;;;;;;6.12;55.12;101397.63;5085741;28;20044;-41
2022/03/22 02:24:37;;;;;;;24.92;8.50;;;;;;;6.12;56.13;101397.63;5084964;28;20101;-40
2022/03/22 02:27:05;;;;;;;23.77;8.88;;;;;;;6.12;55.93;101387.34;5066865;28;20463;-40
2022/03/22 02:29:32;;;;;;;24.38;8.32;;;;;;;6.12;55.16;101391.63;5087381;28;20070;-40
2022/03/22 02:31:58;;;;;;;22.20;7.88;;;;;;;6.12;55.70;101392.47;5085863;28;20415;-40
2022/03/22 02:34:25;;;;;;;25.85;9.60;;;;;;;6.12;55.77;101387.34;5086143;28;20047;-40
2022/03/22 02:36:52;;;;;;;20.05;7.95;;;;;;;6.12;56.29;101391.63;5086417;28;20043;-39
2022/03/22 02:39:18;;;;;;;21.45;7.97;;;;;;;6.11;56.26;101393.31;5088070;28;20040;-41
2022/03/22 02:41:48;;;;;;;25.20;9.10;;;;;;;6.11;56.26;101388.16;5086581;28;20351;-40
2022/03/22 02:44:15;;;;;;;22.90;8.00;;;;;;;6.10;55.06;101389.00;5084642;28;20093;-40
2022/03/22 02:46:42;;;;;;;24.13;8.20;;;;;;;6.08;56.17;101390.63;5087158;28;20074;-42
2022/03/22 02:49:08;;;;;;;30.92;9.80;;;;;;;6.07;56.17;101383.72;5087324;28;20044;-39
2022/03/22 02:51:35;;;;;;;22.33;8.85;;;;;;;6.05;55.73;101380.25;5090525;28;20051;-39
2022/03/22 02:54:02;;;;;;;25.10;8.20;;;;;;;6.02;55.32;101386.09;5100598;27;20048;-41
2022/03/22 02:56:28;;;;;;;23.00;8.13;;;;;;;5.99;56.30;101380.84;5108110;28;20387;-40
2022/03/22 02:58:55;;;;;;;25.02;8.38;;;;;;;5.95;56.21;101378.09;5106051;28;20039;-40
2022/03/22 03:01:21;;;;;;;24.42;8.43;;;;;;;5.91;56.66;101377.97;5094423;28;20499;-42
2022/03/22 03:03:49;;;;;;;23.35;8.48;;;;;;;5.90;56.04;101385.63;5084924;28;20426;-38
2022/03/22 03:06:16;;;;;;;22.42;8.65;;;;;;;5.88;55.86;101388.13;5081807;28;20052;-39
2022/03/22 03:08:42;;;;;;;24.23;8.77;;;;;;;5.86;56.10;101386.34;5087993;28;20548;-40
2022/03/22 03:11:09;;;;;;;28.98;9.18;;;;;;;5.83;56.93;101389.66;5087385;28;20132;-39
2022/03/22 03:16:22;;;;;;;23.67;9.00;;;;;;;5.77;56.61;101381.72;5086533;28;20052;-40
2022/03/22 03:18:51;;;;;;;25.42;9.20;;;;;;;5.75;56.52;101383.34;5085999;28;20097;-41
2022/03/22 03:21:17;;;;;;;25.13;9.07;;;;;;;5.72;57.33;101378.97;5084217;28;20109;-40
2022/03/22 03:23:44;;;;;;;26.15;9.55;;;;;;;5.69;56.39;101380.53;5087100;28;20402;-40
2022/03/22 03:26:10;;;;;;;22.90;8.13;;;;;;;5.66;57.23;101382.19;5082578;28;20564;-39
2022/03/22 03:28:37;;;;;;;23.23;9.48;;;;;;;5.63;56.62;101376.91;5085858;28;20040;-40
2022/03/22 03:31:04;;;;;;;28.05;9.32;;;;;;;5.60;57.18;101381.94;5083479;28;20051;-40
2022/03/22 03:33:31;;;;;;;27.40;9.48;;;;;;;5.58;57.63;101383.59;5086106;28;20054;-41
2022/03/22 03:35:57;;;;;;;23.33;9.57;;;;;;;5.54;57.42;101381.69;5086703;28;20048;-38
2022/03/22 03:38:24;;;;;;;26.13;9.02;;;;;;;5.53;57.67;101374.78;5085738;28;20579;-39
2022/03/22 03:43:37;;;;;;;26.95;9.85;;;;;;;5.50;57.56;101377.25;5080976;28;21125;-38
2022/03/22 03:48:50;;;;;;;23.65;9.40;;;;;;;5.45;57.16;101381.34;5084105;28;20112;-40
2022/03/22 03:51:19;;;;;;;25.20;9.80;;;;;;;5.42;57.91;101381.19;5083483;28;20040;-40
2022/03/22 03:53:45;;;;;;;26.10;9.27;;;;;;;5.39;57.22;101381.97;5088535;28;20072;-40
2022/03/22 03:56:12;;;;;;;25.38;9.35;;;;;;;5.36;57.71;101382.72;5087482;28;20040;-38
2022/03/22 03:58:39;;;;;;;24.95;9.63;;;;;;;5.34;57.60;101379.19;5084106;28;20060;-40
2022/03/22 04:01:05;;;;;;;26.10;9.38;;;;;;;5.30;57.89;101382.47;5082777;28;20101;-39
2022/03/22 04:03:33;;;;;;;25.80;9.65;;;;;;;5.25;57.96;101374.59;5084837;28;20040;-40
2022/03/22 04:05:59;;;;;;;28.58;9.65;;;;;;;5.24;58.20;101382.22;5082042;28;20114;-39
2022/03/22 04:08:26;;;;;;;30.25;10.25;;;;;;;5.20;58.26;101386.34;5086258;28;20089;-40
2022/03/22 04:10:53;;;;;;;28.27;10.88;;;;;;;5.18;57.87;101384.53;5086905;28;20078;-45
2022/03/22 04:13:19;;;;;;;24.23;9.85;;;;;;;5.13;58.25;101377.53;5090386;28;20056;-40
2022/03/22 04:15:46;;;;;;;26.98;9.35;;;;;;;5.12;58.26;101393.75;5092971;28;20047;-40
2022/03/22 04:18:14;;;;;;;28.30;9.82;;;;;;;5.08;58.34;101391.88;5107828;28;20422;-41
2022/03/22 04:20:40;;;;;;;25.90;9.65;;;;;;;5.06;58.75;101388.34;5089465;28;20135;-41
2022/03/22 04:23:08;;;;;;;28.25;10.55;;;;;;;5.05;58.39;101393.41;5089711;28;20052;-40
2022/03/22 04:25:35;;;;;;;30.35;11.20;;;;;;;5.01;58.25;101395.84;5086697;28;20127;-41
2022/03/22 04:33:36;;;;;;;26.27;9.68;;;;;;;4.95;58.76;101394.72;5088495;28;20418;-41
2022/03/22 04:36:03;;;;;;;23.92;9.57;;;;;;;4.95;58.47;101399.84;5090262;28;20415;-40
2022/03/22 04:38:29;;;;;;;29.33;10.77;;;;;;;4.93;58.68;101394.66;5091098;28;20040;-41
2022/03/22 04:40:57;;;;;;;26.27;9.93;;;;;;;4.91;58.54;101398.88;5088358;28;20040;-39
2022/03/22 04:43:24;;;;;;;28.60;10.50;;;;;;;4.87;58.33;101397.84;5089686;28;20048;-39
2022/03/22 04:45:50;;;;;;;34.08;11.50;;;;;;;4.85;58.31;101404.63;5087497;28;20048;-38
2022/03/22 04:48:17;;;;;;;26.65;9.07;;;;;;;4.81;58.78;101407.88;5085335;28;20048;-41
2022/03/22 04:50:44;;;;;;;27.17;10.13;;;;;;;4.78;59.09;101402.59;5089403;28;20055;-39
2022/03/22 04:58:45;;;;;;;31.05;11.00;;;;;;;4.67;59.29;101396.13;5084615;28;20047;-38
2022/03/22 05:01:12;;;;;;;28.70;10.23;;;;;;;4.63;59.37;101393.41;5087245;28;20040;-39
2022/03/22 05:03:39;;;;;;;28.95;10.52;;;;;;;4.60;59.32;101393.28;5087546;28;20043;-39
2022/03/22 05:08:54;;;;;;;25.85;9.52;;;;;;;4.55;59.39;101399.91;5080681;28;20400;-41
2022/03/22 05:11:21;;;;;;;29.08;10.43;;;;;;;4.54;59.60;101397.28;5085153;28;20113;-39
2022/03/22 05:13:48;;;;;;;33.58;10.65;;;;;;;4.53;59.48;101400.66;5086915;28;20044;-40
2022/03/22 05:16:15;;;;;;;34.85;11.68;;;;;;;4.49;59.33;101394.50;5098110;28;20059;-41
2022/03/22 05:18:42;;;;;;;30.70;10.35;;;;;;;4.48;59.89;101397.88;5100681;27;20048;-40
2022/03/22 05:21:09;;;;;;;30.67;11.07;;;;;;;4.47;59.57;101398.69;5087849;28;20072;-39
2022/03/22 05:23:36;;;;;;;28.92;11.50;;;;;;;4.46;59.49;101404.66;5087211;28;20052;-41
2022/03/22 05:26:04;;;;;;;35.42;11.23;;;;;;;4.44;59.95;101407.13;5087761;28;20044;-40
2022/03/22 05:28:31;;;;;;;31.45;11.18;;;;;;;4.42;59.72;101402.75;5085427;28;20044;-40
2022/03/22 05:30:58;;;;;;;30.45;11.77;;;;;;;4.39;59.22;101397.47;5088488;28;20048;-40
2022/03/22 05:33:24;;;;;;;34.22;11.57;;;;;;;4.37;59.93;101397.41;5081847;28;20133;-39
2022/03/22 05:35:51;;;;;;;32.03;11.80;;;;;;;4.35;59.08;101402.47;5087235;28;20055;-39
2022/03/22 05:38:17;;;;;;;32.42;11.32;;;;;;;4.33;59.88;101404.06;5081810;28;20070;-40
2022/03/22 05:40:44;;;;;;;30.92;10.75;;;;;;;4.31;60.50;101398.00;5089692;28;20528;-40
2022/03/22 05:43:10;;;;;;;34.92;12.27;;;;;;;4.32;60.09;101402.31;5088149;28;20628;-40
2022/03/22 05:45:39;;;;;;;31.30;10.13;;;;;;;4.31;60.10;101398.00;5083509;28;20485;-39
2022/03/22 05:48:09;;;;;;;32.47;11.70;;;;;;;4.31;59.99;101405.72;5085661;28;20158;-40
2022/03/22 05:50:35;;;;;;;29.80;11.05;;;;;;;4.30;59.66;101398.84;5086491;28;20040;-40
2022/03/22 05:53:02;;;;;;;31.27;10.40;;;;;;;4.29;60.09;101403.88;5084428;28;20500;-41
2022/03/22 05:55:29;;;;;;;31.77;12.40;;;;;;;4.28;59.65;101403.00;5088731;28;20658;-39
2022/03/22 05:57:56;;;;;;;34.40;12.50;;;;;;;4.27;60.19;101403.81;5085487;28;20437;-39
2022/03/22 06:00:22;;;;;;;30.80;11.43;;;;;;;4.26;60.18;101409.75;5088111;28;20499;-39
2022/03/22 06:02:49;;;;;;;34.65;11.68;;;;;;;4.25;60.10;101410.56;5087817;28;20410;-40
2022/03/22 06:05:16;;;;;;;31.27;11.85;;;;;;;4.23;60.66;101410.47;5087032;28;20067;-39
2022/03/22 06:07:43;;;;;;;38.15;11.55;;;;;;;4.23;60.00;101419.88;5084156;28;20093;-38
2022/03/22 06:10:12;;;;;;;34.88;11.65;;;;;;;4.21;60.43;101406.97;5086231;28;20612;-40
2022/03/22 06:12:43;;;;;;;36.60;11.63;;;;;;;4.22;60.27;101415.56;5086367;28;20064;-39
2022/03/22 06:15:15;;;;;;;34.58;12.32;;;;;;;4.24;60.81;101419.06;5083617;28;20044;-41
2022/03/22 06:17:46;;;;;;;37.47;12.88;;;;;;;4.26;60.19;101409.75;5079661;28;20727;-38
2022/03/22 06:20:15;;;;;;;35.95;11.80;;;;;;;4.29;60.34;101412.44;5087866;28;20036;-40
2022/03/22 06:22:42;;;;;;;37.15;12.75;;;;;;;4.33;60.76;101414.34;5083208;28;20052;-39
2022/03/22 06:25:09;;;;;;;42.53;12.93;;;;;;;4.37;61.05;101413.69;5080200;28;20044;-40
2022/03/22 06:27:36;;;;;;;40.63;13.85;;;;;;;4.41;60.79;101416.38;5083983;28;20051;-40
2022/03/22 06:30:05;;;;;;;43.10;14.07;;;;;;;4.47;60.27;101411.53;5083824;28;20040;-39
2022/03/22 06:32:43;;;;;;;37.50;13.48;;;;;;;4.49;60.66;101412.44;5083834;28;20052;-39
2022/03/22 06:35:14;;;;;;;27.98;11.75;;;;;;;4.54;60.47;101416.13;5081873;28;20054;-39
2022/03/22 06:37:41;;;;;;;38.08;12.95;;;;;;;4.59;60.78;101417.19;5084491;28;20047;-40
2022/03/22 06:40:09;;;;;;;38.15;12.77;;;;;;;4.66;60.78;101413.19;5085269;28;20109;-41
2022/03/22 06:42:36;;;;;;;38.22;13.18;;;;;;;4.71;60.58;101422.00;5082827;28;20102;-39
2022/03/22 06:45:21;;;;;;;41.85;13.95;;;;;;;4.76;60.64;101414.47;5084617;28;20051;-39
2022/03/22 06:47:48;;;;;;;39.67;13.68;;;;;;;4.83;60.31;101411.38;5078793;28;20250;-38
2022/03/22 06:50:17;;;;;;;42.95;14.75;;;;;;;4.89;60.42;101419.34;5087854;28;20052;-39
2022/03/22 06:52:43;;;;;;;39.33;14.35;;;;;;;4.96;60.59;101423.03;5086786;28;20484;-40
2022/03/22 06:55:12;;;;;;;41.17;13.93;;;;;;;5.05;60.53;101421.66;5090472;28;20101;-39
2022/03/22 06:57:40;;;;;;;43.30;13.90;;;;;;;5.12;60.45;101422.00;5083231;28;20056;-39
2022/03/22 07:00:10;;;;;;;42.97;13.88;;;;;;;5.18;60.91;101431.66;5084250;28;20541;-40
2022/03/22 07:02:41;;;;;;;46.95;14.75;;;;;;;5.27;60.37;101418.31;5083475;28;20055;-40
2022/03/22 07:05:09;;;;;;;42.17;13.70;;;;;;;5.33;60.43;101418.56;5081859;28;20047;-40
2022/03/22 07:07:36;;;;;;;39.13;14.30;;;;;;;5.39;60.77;101423.97;5061146;28;20075;-41
2022/03/22 07:10:05;;;;;;;40.40;14.70;;;;;;;5.53;60.01;101437.38;5080204;28;20040;-40
2022/03/22 07:12:32;;;;;;;41.63;14.25;;;;;;;5.64;60.49;101440.34;5077053;28;20048;-39
2022/03/22 07:15:02;;;;;;;42.88;13.70;;;;;;;5.75;60.19;101445.06;5085010;28;20044;-41
2022/03/22 07:17:29;;;;;;;45.80;14.30;;;;;;;5.85;59.71;101451.44;5080835;28;20075;-40
2022/03/22 07:19:56;;;;;;;37.63;14.25;;;;;;;5.96;60.92;101457.88;5096789;28;20052;-41
2022/03/22 07:22:23;;;;;;;43.58;14.13;;;;;;;5.99;59.83;101450.28;5098395;28;20055;-40
2022/03/22 07:24:50;;;;;;;42.83;14.35;;;;;;;6.06;60.69;101454.00;5097879;28;20051;-39
2022/03/22 07:27:17;;;;;;;38.92;14.38;;;;;;;6.23;60.54;101456.34;5097772;28;20051;-40
2022/03/22 07:29:44;;;;;;;45.60;16.60;;;;;;;6.69;60.16;101457.19;5097916;28;20048;-41
2022/03/22 07:32:10;;;;;;;44.72;15.77;;;;;;;7.27;60.52;101452.31;5100786;28;20051;-41
2022/03/22 07:34:37;;;;;;;43.25;15.55;;;;;;;7.85;58.44;101456.72;5099085;28;20056;-40
2022/03/22 07:37:04;;;;;;;42.97;14.95;;;;;;;8.40;58.39;101456.63;5085821;28;20040;-42
2022/03/22 07:39:34;;;;;;;40.60;15.93;;;;;;;8.98;56.97;101453.03;5100136;28;20539;-40
2022/03/22 07:42:02;;;;;;;41.45;15.80;;;;;;;9.54;56.71;101451.00;5102514;27;20097;-39
2022/03/22 07:44:30;;;;;;;39.15;15.10;;;;;;;10.13;55.26;101454.91;5103100;28;20615;-42
2022/03/22 07:46:59;;;;;;;39.50;15.48;;;;;;;10.64;54.35;101456.00;5098252;28;20097;-41
2022/03/22 07:54:59;;;;;;;48.13;17.42;;;;;;;12.12;51.73;101454.13;5083797;28;20056;-40
2022/03/22 07:57:25;;;;;;;39.13;15.35;;;;;;;12.52;51.17;101454.63;5101722;28;20047;-42
2022/03/22 07:59:52;;;;;;;43.10;16.33;;;;;;;12.82;49.48;101448.00;5098580;28;20043;-42
2022/03/22 08:02:19;;;;;;;42.00;16.73;;;;;;;13.03;48.70;101446.47;5097245;28;20043;-42
2022/03/22 08:04:48;;;;;;;42.38;16.23;;;;;;;13.20;49.73;101456.16;5102838;28;20054;-40
2022/03/22 08:07:15;;;;;;;45.25;16.00;;;;;;;13.35;48.13;101453.69;5106845;28;20044;-43
2022/03/22 08:09:45;;;;;;;41.85;16.02;;;;;;;13.58;48.51;101455.63;5099982;28;20109;-43
2022/03/22 08:12:12;;;;;;;44.97;18.13;;;;;;;13.91;48.08;101457.59;5099682;28;20086;-42
2022/03/22 08:14:39;;;;;;;51.45;18.80;;;;;;;14.19;47.58;101449.94;5098524;28;20946;-44
2022/03/22 08:17:06;;;;;;;45.53;18.83;;;;;;;14.60;47.71;101450.94;5100673;28;20613;-42
2022/03/22 08:19:36;;;;;;;;;;;;;;;14.88;46.78;101453.66;5090863;28;20185;-41
2022/03/22 08:22:05;;;;;;;51.42;17.85;;;;;;;15.31;46.30;101463.28;5096697;28;19920;-43
2022/03/22 08:24:32;;;;;;;49.47;18.83;;;;;;;15.66;45.91;101465.00;5102462;28;20194;-42
2022/03/22 08:27:01;;;;;;;49.00;19.10;;;;;;;15.91;45.38;101464.94;5100293;28;20051;-43
2022/03/22 08:29:29;;;;;;;46.50;18.30;;;;;;;16.10;45.12;101459.69;5100445;28;20039;-45
2022/03/22 08:31:56;;;;;;;49.17;19.15;;;;;;;16.26;43.98;101472.72;5100643;28;20117;-42
2022/03/22 08:34:23;;;;;;;51.85;20.80;;;;;;;16.08;43.93;101471.91;5099178;28;20074;-41
2022/03/22 08:36:52;;;;;;;54.38;20.80;;;;;;;15.81;43.57;101476.31;5100887;28;20039;-43
2022/03/22 08:39:19;;;;;;;51.67;21.75;;;;;;;15.80;44.62;101477.16;5102102;28;20069;-42
2022/03/22 08:41:47;;;;;;;53.50;21.95;;;;;;;16.11;44.50;101477.13;5101571;28;20490;-43
2022/03/22 08:44:32;;;;;;;52.20;19.75;;;;;;;16.47;44.21;101483.97;5098585;28;20043;-44
2022/03/22 08:47:01;;;;;;;57.88;21.35;;;;;;;16.57;42.59;101481.31;5100883;28;20609;-43
2022/03/22 08:49:29;;;;;;;51.95;20.92;;;;;;;16.76;43.15;101485.56;5094832;28;20039;-44
2022/03/22 08:52:00;;;;;;;58.30;23.00;;;;;;;17.04;43.75;101485.41;5099864;28;20040;-42
2022/03/22 08:54:27;;;;;;;51.25;22.45;;;;;;;17.30;42.79;101482.59;5102926;28;20043;-43
2022/03/22 08:56:54;;;;;;;52.17;22.10;;;;;;;17.52;43.04;101486.81;5103923;28;20074;-43
2022/03/22 08:59:21;;;;;;;58.80;22.88;;;;;;;17.72;42.71;101484.88;5101771;27;20605;-41
2022/03/22 09:01:49;;;;;;;49.75;21.55;;;;;;;18.03;41.81;101482.84;5105334;27;20187;-42
2022/03/22 09:07:05;;;;;;;49.88;21.52;;;;;;;18.70;41.26;101485.53;5086544;28;20501;-43
2022/03/22 09:09:34;;;;;;;54.42;21.70;;;;;;;18.96;40.23;101489.56;5105226;28;20047;-45
2022/03/22 09:12:02;;;;;;;54.67;22.00;;;;;;;19.31;40.54;101494.28;5105969;28;20045;-43
2022/03/22 09:14:30;;;;;;;55.13;23.30;;;;;;;19.56;39.79;101496.53;5103024;28;20032;-43
2022/03/22 09:16:57;;;;;;;50.20;20.27;;;;;;;19.95;39.78;101491.44;5105681;28;20040;-46
2022/03/22 09:19:26;;;;;;;53.50;22.05;;;;;;;20.31;39.15;101489.88;5104347;28;20097;-45
2022/03/22 09:22:14;;;;;;;51.95;24.10;;;;;;;20.67;38.76;101488.25;5104368;28;20043;-44
2022/03/22 09:24:41;;;;;;;58.25;21.95;;;;;;;20.65;37.96;101483.91;5102325;28;20514;-43
2022/03/22 09:27:10;;;;;;;55.15;22.52;;;;;;;20.18;38.37;101484.88;5105441;28;20048;-44
2022/03/22 09:29:38;;;;;;;58.15;23.80;;;;;;;19.56;39.28;101476.38;5086925;28;20442;-43
2022/03/22 09:32:05;;;;;;;52.35;23.80;;;;;;;19.09;39.47;101476.25;5101852;27;20055;-45
2022/03/22 09:34:32;;;;;;;53.33;23.52;;;;;;;18.58;40.02;101476.06;5100930;27;20052;-43
2022/03/22 09:37:00;;;;;;;57.13;23.30;;;;;;;18.20;41.00;101475.66;5102845;27;20040;-44
2022/03/22 09:39:27;;;;;;;51.17;22.23;;;;;;;18.02;42.35;101473.22;5081858;28;20425;-42
2022/03/22 09:41:56;;;;;;;56.13;23.10;;;;;;;17.78;42.67;101470.84;5103893;28;20040;-43
2022/03/22 09:44:23;;;;;;;53.97;22.67;;;;;;;17.56;42.46;101472.81;5087608;27;20048;-44
2022/03/22 09:46:50;;;;;;;56.72;22.73;;;;;;;17.39;42.89;101475.59;5103069;28;20043;-43
2022/03/22 09:49:17;;;;;;;54.83;23.20;;;;;;;17.37;43.27;101475.59;5104168;28;20054;-43
2022/03/22 09:51:44;;;;;;;56.78;22.80;;;;;;;17.47;43.36;101474.63;5103999;28;20047;-42
2022/03/22 09:54:14;;;;;;;60.85;24.42;;;;;;;17.70;42.92;101477.94;5096747;28;20052;-45
2022/03/22 09:56:42;;;;;;;55.67;21.92;;;;;;;17.99;43.07;101475.00;5080512;28;21445;-46
2022/03/22 09:59:09;;;;;;;55.53;22.20;;;;;;;18.46;42.56;101469.25;5076070;28;20092;-43
2022/03/22 10:01:37;;;;;;;56.95;23.58;;;;;;;18.77;41.97;101475.81;5095975;27;20119;-43
2022/03/22 10:04:08;;;;;;;56.25;22.88;;;;;;;19.01;41.86;101469.34;5095284;27;20043;-43
2022/03/22 10:06:35;;;;;;;56.13;21.50;;;;;;;19.65;42.39;101475.31;5098286;28;20040;-43
2022/03/22 10:09:05;;;;;;;58.60;24.13;;;;;;;20.08;40.46;101473.69;5097946;27;20743;-43
2022/03/22 10:14:12;;;;;;;52.30;21.92;;;;;;;19.62;40.71;101467.53;4996239;28;20407;-44
2022/03/22 10:16:45;;;;;;;61.08;23.83;;;;;;;19.65;40.94;101465.69;4974063;28;20055;-42
2022/03/22 10:21:58;;;;;;;53.00;24.40;;;;;;;19.70;40.26;101468.25;5023617;28;20400;-43
2022/03/22 10:24:24;;;;;;;;;;;;;;;19.99;40.44;101474.72;4984908;28;20042;-44
2022/03/22 10:26:51;;;;;;;58.90;23.08;;;;;;;20.27;40.63;101474.16;5002361;28;19921;-45
2022/03/22 10:29:19;;;;;;;51.67;22.88;;;;;;;20.59;40.21;101473.50;5003347;28;20050;-45
2022/03/22 10:31:46;;;;;;;58.08;24.08;;;;;;;20.95;40.01;101464.84;4998732;28;20693;-47
2022/03/22 10:34:15;;;;;;;53.72;23.27;;;;;;;21.28;39.90;101473.69;4999600;28;20142;-42
2022/03/22 10:36:42;;;;;;;48.83;19.85;;;;;;;21.39;38.85;101459.38;4995669;28;20050;-43
2022/03/22 10:39:11;;;;;;;47.97;20.83;;;;;;;20.80;38.83;101467.78;5002318;28;20042;-44
2022/03/22 10:41:42;;;;;;;;;;;;;;;20.32;38.75;101458.28;5002185;28;20128;-45
2022/03/22 10:46:47;;;;;;;45.42;20.50;;;;;;;19.18;40.58;101459.50;5032741;28;20410;-45
2022/03/22 10:49:17;;;;;;;46.85;21.15;;;;;;;18.84;41.77;101458.22;5016353;28;20053;-43
2022/03/22 10:52:08;;;;;;;44.97;20.42;;;;;;;18.68;42.01;101449.72;5011542;28;20145;-44
2022/03/22 10:54:35;;;;;;;45.00;19.73;;;;;;;18.74;42.25;101449.59;5016680;28;20037;-43
2022/03/22 10:57:02;;;;;;;40.60;18.27;;;;;;;18.58;42.83;101446.34;5018491;28;20672;-44
2022/03/22 10:59:28;;;;;;;46.75;21.00;;;;;;;18.41;43.45;101447.44;5018923;28;20054;-44
2022/03/22 11:01:56;;;;;;;41.67;19.35;;;;;;;18.61;42.73;101441.06;5019342;28;20103;-43
2022/03/22 11:04:24;;;;;;;36.78;17.67;;;;;;;18.55;42.73;101439.41;5016219;28;20042;-44
2022/03/22 11:06:52;;;;;;;42.28;18.15;;;;;;;18.52;43.40;101441.19;5013731;28;20046;-44
2022/03/22 11:09:20;;;;;;;39.17;18.25;;;;;;;18.03;44.11;101446.13;5016660;28;20055;-44
2022/03/22 11:11:50;;;;;;;41.33;19.10;;;;;;;17.73;44.57;101439.44;5015598;28;20049;-43
2022/03/22 11:14:18;;;;;;;42.30;17.63;;;;;;;17.54;44.63;101438.78;5021400;28;20056;-43
2022/03/22 11:16:48;;;;;;;42.33;19.63;;;;;;;17.42;45.60;101446.72;5017817;28;20484;-42
2022/03/22 11:19:21;;;;;;;47.17;18.77;;;;;;;17.45;45.90;101433.63;5013391;28;20069;-43
2022/03/22 11:21:48;;;;;;;48.38;20.33;;;;;;;17.54;45.61;101440.53;5009034;28;20049;-43
2022/03/22 11:24:22;;;;;;;40.65;18.33;;;;;;;17.57;45.32;101437.88;5011800;28;20061;-43
2022/03/22 11:26:53;;;;;;;41.75;18.58;;;;;;;17.50;45.00;101444.06;5011379;28;20046;-43
2022/03/22 11:29:22;;;;;;;45.95;19.52;;;;;;;17.38;45.67;101443.28;5009173;28;20062;-44
2022/03/22 11:34:39;;;;;;;44.55;19.25;;;;;;;17.37;46.46;101444.19;5015010;28;20050;-47
2022/03/22 11:37:07;;;;;;;44.72;20.13;;;;;;;17.34;46.51;101436.34;5010812;28;20053;-43
2022/03/22 11:42:24;;;;;;;41.05;17.17;;;;;;;17.38;45.88;101440.66;5013959;28;20571;-42
2022/03/22 11:44:56;;;;;;;46.20;20.10;;;;;;;17.44;46.33;101445.84;5020684;28;20080;-43
2022/03/22 11:47:23;;;;;;;44.03;19.80;;;;;;;17.40;46.84;101441.53;5015205;28;20061;-43
2022/03/22 11:52:39;;;;;;;47.05;21.05;;;;;;;17.55;45.94;101439.63;5006061;28;20894;-42
2022/03/22 11:57:56;;;;;;;44.90;17.65;;;;;;;17.30;47.46;101445.09;5046429;27;20398;-43
2022/03/22 12:00:42;;;;;;;49.22;19.05;;;;;;;17.59;48.23;101441.34;5017987;28;20104;-42
2022/03/22 12:03:11;;;;;;;43.72;18.23;;;;;;;17.73;47.30;101434.22;5017505;28;20485;-44
2022/03/22 12:05:38;;;;;;;45.90;18.65;;;;;;;17.76;46.36;101438.53;5021538;28;20072;-42
2022/03/22 12:08:06;;;;;;;40.63;16.45;;;;;;;17.81;47.18;101433.25;5014746;28;20147;-43
2022/03/22 12:10:33;;;;;;;39.47;16.83;;;;;;;17.85;46.75;101432.34;5019979;28;20037;-43
2022/03/22 12:13:00;;;;;;;35.10;15.07;;;;;;;17.73;47.60;101428.97;5020658;28;20042;-43
2022/03/22 12:15:27;;;;;;;39.97;16.33;;;;;;;17.53;46.54;101421.31;5013166;28;20050;-45
2022/03/22 12:17:53;;;;;;;37.60;16.75;;;;;;;17.41;48.28;101419.69;4997841;28;20050;-43